sensor_id;sensor_type;location;lat;lon;timestamp;temperature;humidity
28677;DHT22;15858;48.338;11.078;2024-03-23T00:56:11;10.00;99.90
28677;DHT22;15858;48.338;11.078;2024-03-23T00:58:37;10.00;99.90
28677;DHT22;15858;48.338;11.078;2024-03-23T01:01:03;10.10;99.90
28677;DHT22;15858;48.338;11.078;2024-03-23T01:03:28;10.10;99.90
28677;DHT22;15858;48.338;11.078;2024-03-23T01:05:54;10.10;99.90
28677;DHT22;15858;48.338;11.078;2024-03-23T01:08:24;10.20;99.90
28677;DHT22;15858;48.338;11.078;2024-03-23T01:11:00;10.20;99.90
28677;DHT22;15858;48.338;11.078;2024-03-23T01:13:27;10.20;99.90
28677;DHT22;15858;48.338;11.078;2024-03-23T01:15:54;10.20;99.90
28677;DHT22;15858;48.338;11.078;2024-03-23T01:18:20;10.20;99.90
28677;DHT22;15858;48.338;11.078;2024-03-23T01:20:47;10.20;99.90
28677;DHT22;15858;48.338;11.078;2024-03-23T01:23:13;10.30;99.90
28677;DHT22;15858;48.338;11.078;2024-03-23T01:25:39;10.30;99.90
28677;DHT22;15858;48.338;11.078;2024-03-23T01:28:05;10.20;99.90
28677;DHT22;15858;48.338;11.078;2024-03-23T01:30:31;10.20;99.90
28677;DHT22;15858;48.338;11.078;2024-03-23T01:32:57;10.20;99.90
28677;DHT22;15858;48.338;11.078;2024-03-23T01:35:22;10.10;99.90
28677;DHT22;15858;48.338;11.078;2024-03-23T01:37:48;10.10;99.90
28677;DHT22;15858;48.338;11.078;2024-03-23T01:40:16;10.10;99.90
28677;DHT22;15858;48.338;11.078;2024-03-23T01:42:42;10.10;99.90
28677;DHT22;15858;48.338;11.078;2024-03-23T01:45:09;10.10;99.90
28677;DHT22;15858;48.338;11.078;2024-03-23T01:47:35;10.10;99.90
28677;DHT22;15858;48.338;11.078;2024-03-23T01:50:01;10.20;99.90
28677;DHT22;15858;48.338;11.078;2024-03-23T01:52:27;10.20;99.90
28677;DHT22;15858;48.338;11.078;2024-03-23T01:54:53;10.20;99.90
28677;DHT22;15858;48.338;11.078;2024-03-23T01:57:22;10.20;99.90
28677;DHT22;15858;48.338;11.078;2024-03-23T01:59:48;10.20;99.90
28677;DHT22;15858;48.338;11.078;2024-03-23T02:02:14;10.20;99.90
28677;DHT22;15858;48.338;11.078;2024-03-23T02:04:40;10.20;99.90
28677;DHT22;15858;48.338;11.078;2024-03-23T02:07:09;10.20;99.90
28677;DHT22;15858;48.338;11.078;2024-03-23T02:09:35;10.20;99.90
28677;DHT22;15858;48.338;11.078;2024-03-23T02:12:02;10.20;99.90
28677;DHT22;15858;48.338;11.078;2024-03-23T02:14:28;10.30;99.90
28677;DHT22;15858;48.338;11.078;2024-03-23T02:16:54;10.30;99.90
28677;DHT22;15858;48.338;11.078;2024-03-23T02:19:19;10.20;99.90
28677;DHT22;15858;48.338;11.078;2024-03-23T02:21:45;10.30;99.90
28677;DHT22;15858;48.338;11.078;2024-03-23T02:24:11;10.30;99.90
28677;DHT22;15858;48.338;11.078;2024-03-23T02:26:37;10.40;99.90
28677;DHT22;15858;48.338;11.078;2024-03-23T02:29:02;10.40;99.90
28677;DHT22;15858;48.338;11.078;2024-03-23T02:31:28;10.40;99.90
28677;DHT22;15858;48.338;11.078;2024-03-23T02:33:54;10.30;99.90
28677;DHT22;15858;48.338;11.078;2024-03-23T02:36:20;10.40;99.90
28677;DHT22;15858;48.338;11.078;2024-03-23T02:38:45;10.40;99.90
28677;DHT22;15858;48.338;11.078;2024-03-23T02:41:11;10.50;99.90
28677;DHT22;15858;48.338;11.078;2024-03-23T02:43:37;10.50;99.90
28677;DHT22;15858;48.338;11.078;2024-03-23T02:46:03;10.40;99.90
28677;DHT22;15858;48.338;11.078;2024-03-23T02:48:29;10.40;99.90
28677;DHT22;15858;48.338;11.078;2024-03-23T02:50:54;10.40;99.90
28677;DHT22;15858;48.338;11.078;2024-03-23T02:53:20;10.40;99.90
28677;DHT22;15858;48.338;11.078;2024-03-23T02:55:46;10.50;99.90
28677;DHT22;15858;48.338;11.078;2024-03-23T02:58:12;10.50;99.90
28677;DHT22;15858;48.338;11.078;2024-03-23T03:00:37;10.60;99.90
28677;DHT22;15858;48.338;11.078;2024-03-23T03:03:03;10.60;99.90
28677;DHT22;15858;48.338;11.078;2024-03-23T03:05:29;10.60;99.90
28677;DHT22;15858;48.338;11.078;2024-03-23T03:07:55;10.60;99.90
28677;DHT22;15858;48.338;11.078;2024-03-23T03:10:21;10.60;99.90
28677;DHT22;15858;48.338;11.078;2024-03-23T03:12:47;10.50;99.90
28677;DHT22;15858;48.338;11.078;2024-03-23T03:15:13;10.60;99.90
28677;DHT22;15858;48.338;11.078;2024-03-23T03:17:38;10.60;99.90
28677;DHT22;15858;48.338;11.078;2024-03-23T03:20:04;10.50;99.90
28677;DHT22;15858;48.338;11.078;2024-03-23T03:22:30;10.60;99.90
28677;DHT22;15858;48.338;11.078;2024-03-23T03:24:56;10.60;99.90
28677;DHT22;15858;48.338;11.078;2024-03-23T03:27:22;10.60;99.90
28677;DHT22;15858;48.338;11.078;2024-03-23T03:29:48;10.60;99.90
28677;DHT22;15858;48.338;11.078;2024-03-23T03:32:13;10.60;99.90
28677;DHT22;15858;48.338;11.078;2024-03-23T03:34:39;10.60;99.90
28677;DHT22;15858;48.338;11.078;2024-03-23T03:37:05;10.60;99.90
28677;DHT22;15858;48.338;11.078;2024-03-23T03:39:30;10.60;99.90
28677;DHT22;15858;48.338;11.078;2024-03-23T03:41:56;10.60;99.90
28677;DHT22;15858;48.338;11.078;2024-03-23T03:44:22;10.50;99.90
28677;DHT22;15858;48.338;11.078;2024-03-23T03:46:48;10.40;99.90
28677;DHT22;15858;48.338;11.078;2024-03-23T03:49:14;10.40;99.90
28677;DHT22;15858;48.338;11.078;2024-03-23T03:51:39;10.40;99.90
28677;DHT22;15858;48.338;11.078;2024-03-23T03:54:05;10.40;99.90
28677;DHT22;15858;48.338;11.078;2024-03-23T03:56:31;10.50;99.90
28677;DHT22;15858;48.338;11.078;2024-03-23T03:58:56;10.50;99.90
28677;DHT22;15858;48.338;11.078;2024-03-23T04:01:22;10.50;99.90
28677;DHT22;15858;48.338;11.078;2024-03-23T04:03:48;10.40;99.90
28677;DHT22;15858;48.338;11.078;2024-03-23T04:06:20;10.40;99.90
28677;DHT22;15858;48.338;11.078;2024-03-23T04:08:46;10.40;99.90
28677;DHT22;15858;48.338;11.078;2024-03-23T04:11:11;10.40;99.90
28677;DHT22;15858;48.338;11.078;2024-03-23T04:13:37;10.40;99.90
28677;DHT22;15858;48.338;11.078;2024-03-23T04:16:03;10.40;99.90
28677;DHT22;15858;48.338;11.078;2024-03-23T04:18:29;10.40;99.90
28677;DHT22;15858;48.338;11.078;2024-03-23T04:20:55;10.60;99.90
28677;DHT22;15858;48.338;11.078;2024-03-23T04:23:20;10.60;99.90
28677;DHT22;15858;48.338;11.078;2024-03-23T04:25:46;10.60;99.90
28677;DHT22;15858;48.338;11.078;2024-03-23T04:28:12;10.70;99.90
28677;DHT22;15858;48.338;11.078;2024-03-23T04:30:38;10.80;99.90
28677;DHT22;15858;48.338;11.078;2024-03-23T04:33:04;10.80;99.90
28677;DHT22;15858;48.338;11.078;2024-03-23T04:35:30;10.80;99.90
28677;DHT22;15858;48.338;11.078;2024-03-23T04:37:55;10.80;99.90
28677;DHT22;15858;48.338;11.078;2024-03-23T04:40:21;10.80;99.90
28677;DHT22;15858;48.338;11.078;2024-03-23T04:42:47;10.80;99.90
28677;DHT22;15858;48.338;11.078;2024-03-23T04:45:13;10.80;99.90
28677;DHT22;15858;48.338;11.078;2024-03-23T04:47:39;10.80;99.90
28677;DHT22;15858;48.338;11.078;2024-03-23T04:50:05;10.90;99.90
28677;DHT22;15858;48.338;11.078;2024-03-23T04:52:30;10.90;99.90
28677;DHT22;15858;48.338;11.078;2024-03-23T04:54:56;10.90;99.90
28677;DHT22;15858;48.338;11.078;2024-03-23T04:57:22;11.00;99.90
28677;DHT22;15858;48.338;11.078;2024-03-23T04:59:48;11.00;99.90
28677;DHT22;15858;48.338;11.078;2024-03-23T05:02:14;11.00;99.90
28677;DHT22;15858;48.338;11.078;2024-03-23T05:04:40;11.00;99.90
28677;DHT22;15858;48.338;11.078;2024-03-23T05:07:06;11.10;99.90
28677;DHT22;15858;48.338;11.078;2024-03-23T05:09:32;11.10;99.90
28677;DHT22;15858;48.338;11.078;2024-03-23T05:11:58;11.10;99.90
28677;DHT22;15858;48.338;11.078;2024-03-23T05:14:24;11.10;99.90
28677;DHT22;15858;48.338;11.078;2024-03-23T05:16:50;11.10;99.90
28677;DHT22;15858;48.338;11.078;2024-03-23T05:19:15;11.10;99.90
28677;DHT22;15858;48.338;11.078;2024-03-23T05:21:41;11.10;99.90
28677;DHT22;15858;48.338;11.078;2024-03-23T05:24:07;11.10;99.90
28677;DHT22;15858;48.338;11.078;2024-03-23T05:26:33;11.00;99.90
28677;DHT22;15858;48.338;11.078;2024-03-23T05:28:58;11.10;99.90
28677;DHT22;15858;48.338;11.078;2024-03-23T05:31:28;11.00;99.90
28677;DHT22;15858;48.338;11.078;2024-03-23T05:33:55;11.00;99.90
28677;DHT22;15858;48.338;11.078;2024-03-23T05:36:21;11.00;99.90
28677;DHT22;15858;48.338;11.078;2024-03-23T05:38:47;11.10;99.90
28677;DHT22;15858;48.338;11.078;2024-03-23T05:41:13;11.00;99.90
28677;DHT22;15858;48.338;11.078;2024-03-23T05:43:39;11.00;99.90
28677;DHT22;15858;48.338;11.078;2024-03-23T05:46:05;11.00;99.90
28677;DHT22;15858;48.338;11.078;2024-03-23T05:48:31;11.00;99.90
28677;DHT22;15858;48.338;11.078;2024-03-23T05:50:57;11.10;99.90
28677;DHT22;15858;48.338;11.078;2024-03-23T05:53:23;11.30;99.90
28677;DHT22;15858;48.338;11.078;2024-03-23T05:55:50;11.30;99.90
28677;DHT22;15858;48.338;11.078;2024-03-23T05:58:17;11.40;99.90
28677;DHT22;15858;48.338;11.078;2024-03-23T06:00:43;11.50;99.90
28677;DHT22;15858;48.338;11.078;2024-03-23T06:03:10;11.50;99.90
28677;DHT22;15858;48.338;11.078;2024-03-23T06:05:40;11.60;99.90
28677;DHT22;15858;48.338;11.078;2024-03-23T06:08:05;11.50;99.90
28677;DHT22;15858;48.338;11.078;2024-03-23T06:10:31;11.60;99.90
28677;DHT22;15858;48.338;11.078;2024-03-23T06:12:57;11.70;99.90
28677;DHT22;15858;48.338;11.078;2024-03-23T06:15:23;11.80;99.90
28677;DHT22;15858;48.338;11.078;2024-03-23T06:17:49;11.90;99.90
28677;DHT22;15858;48.338;11.078;2024-03-23T06:20:15;11.90;99.90
28677;DHT22;15858;48.338;11.078;2024-03-23T06:22:40;12.00;99.90
28677;DHT22;15858;48.338;11.078;2024-03-23T06:25:07;12.00;99.90
28677;DHT22;15858;48.338;11.078;2024-03-23T06:27:33;12.10;99.90
28677;DHT22;15858;48.338;11.078;2024-03-23T06:29:59;12.20;99.90
28677;DHT22;15858;48.338;11.078;2024-03-23T06:32:25;12.30;99.90
28677;DHT22;15858;48.338;11.078;2024-03-23T06:34:51;12.40;99.90
28677;DHT22;15858;48.338;11.078;2024-03-23T06:37:17;12.40;99.90
28677;DHT22;15858;48.338;11.078;2024-03-23T06:39:45;12.40;99.90
28677;DHT22;15858;48.338;11.078;2024-03-23T06:42:11;12.40;99.90
28677;DHT22;15858;48.338;11.078;2024-03-23T06:44:37;12.40;99.90
28677;DHT22;15858;48.338;11.078;2024-03-23T06:47:03;12.40;99.90
28677;DHT22;15858;48.338;11.078;2024-03-23T06:49:28;12.30;99.90
28677;DHT22;15858;48.338;11.078;2024-03-23T06:51:54;12.30;99.90
28677;DHT22;15858;48.338;11.078;2024-03-23T06:54:20;12.40;99.90
28677;DHT22;15858;48.338;11.078;2024-03-23T06:56:46;12.30;99.90
28677;DHT22;15858;48.338;11.078;2024-03-23T06:59:12;12.30;99.90
28677;DHT22;15858;48.338;11.078;2024-03-23T07:01:37;12.30;99.90
28677;DHT22;15858;48.338;11.078;2024-03-23T07:04:04;12.30;99.90
28677;DHT22;15858;48.338;11.078;2024-03-23T07:06:30;12.40;99.90
28677;DHT22;15858;48.338;11.078;2024-03-23T07:08:56;12.30;99.90
28677;DHT22;15858;48.338;11.078;2024-03-23T07:11:22;12.20;99.90
28677;DHT22;15858;48.338;11.078;2024-03-23T07:13:52;12.30;99.90
28677;DHT22;15858;48.338;11.078;2024-03-23T07:16:18;12.20;99.90
28677;DHT22;15858;48.338;11.078;2024-03-23T07:18:44;12.20;99.90
28677;DHT22;15858;48.338;11.078;2024-03-23T07:21:10;12.20;99.90
28677;DHT22;15858;48.338;11.078;2024-03-23T07:23:36;12.20;99.90
28677;DHT22;15858;48.338;11.078;2024-03-23T07:26:03;12.10;99.90
28677;DHT22;15858;48.338;11.078;2024-03-23T07:28:29;12.10;99.90
28677;DHT22;15858;48.338;11.078;2024-03-23T07:31:05;12.00;99.90
28677;DHT22;15858;48.338;11.078;2024-03-23T07:33:31;12.00;99.90
28677;DHT22;15858;48.338;11.078;2024-03-23T07:35:58;11.90;99.90
28677;DHT22;15858;48.338;11.078;2024-03-23T07:38:23;11.90;99.90
28677;DHT22;15858;48.338;11.078;2024-03-23T07:40:49;11.90;99.90
28677;DHT22;15858;48.338;11.078;2024-03-23T07:43:15;11.90;99.90
28677;DHT22;15858;48.338;11.078;2024-03-23T07:45:41;11.70;99.90
28677;DHT22;15858;48.338;11.078;2024-03-23T07:48:07;11.20;99.90
28677;DHT22;15858;48.338;11.078;2024-03-23T07:50:32;11.00;99.90
28677;DHT22;15858;48.338;11.078;2024-03-23T07:52:58;10.90;99.90
28677;DHT22;15858;48.338;11.078;2024-03-23T07:55:24;10.70;99.90
28677;DHT22;15858;48.338;11.078;2024-03-23T07:57:51;10.50;99.90
28677;DHT22;15858;48.338;11.078;2024-03-23T08:00:17;10.30;99.90
28677;DHT22;15858;48.338;11.078;2024-03-23T08:02:43;10.20;99.90
28677;DHT22;15858;48.338;11.078;2024-03-23T08:05:08;10.20;99.90
28677;DHT22;15858;48.338;11.078;2024-03-23T08:07:34;10.20;99.90
28677;DHT22;15858;48.338;11.078;2024-03-23T08:10:00;10.10;99.90
28677;DHT22;15858;48.338;11.078;2024-03-23T08:12:26;10.10;99.90
28677;DHT22;15858;48.338;11.078;2024-03-23T08:14:51;10.00;99.90
28677;DHT22;15858;48.338;11.078;2024-03-23T08:17:17;10.00;99.90
28677;DHT22;15858;48.338;11.078;2024-03-23T08:19:43;9.90;99.90
28677;DHT22;15858;48.338;11.078;2024-03-23T08:22:08;9.90;99.90
28677;DHT22;15858;48.338;11.078;2024-03-23T08:24:34;9.70;99.90
28677;DHT22;15858;48.338;11.078;2024-03-23T08:27:00;9.60;99.90
28677;DHT22;15858;48.338;11.078;2024-03-23T08:29:26;9.60;99.90
28677;DHT22;15858;48.338;11.078;2024-03-23T08:31:52;9.60;99.90
28677;DHT22;15858;48.338;11.078;2024-03-23T08:34:18;9.50;99.90
28677;DHT22;15858;48.338;11.078;2024-03-23T08:36:43;9.60;99.90
28677;DHT22;15858;48.338;11.078;2024-03-23T08:39:09;9.60;99.90
28677;DHT22;15858;48.338;11.078;2024-03-23T08:41:35;9.70;99.90
28677;DHT22;15858;48.338;11.078;2024-03-23T08:44:01;9.80;99.90
28677;DHT22;15858;48.338;11.078;2024-03-23T08:46:26;9.70;99.90
28677;DHT22;15858;48.338;11.078;2024-03-23T08:48:52;9.80;99.90
28677;DHT22;15858;48.338;11.078;2024-03-23T08:51:18;9.70;99.90
28677;DHT22;15858;48.338;11.078;2024-03-23T08:53:44;9.70;99.90
28677;DHT22;15858;48.338;11.078;2024-03-23T08:56:10;9.70;99.90
28677;DHT22;15858;48.338;11.078;2024-03-23T08:58:37;9.70;99.90
28677;DHT22;15858;48.338;11.078;2024-03-23T09:03:30;9.70;99.90
28677;DHT22;15858;48.338;11.078;2024-03-23T09:05:56;9.60;99.90
28677;DHT22;15858;48.338;11.078;2024-03-23T09:08:22;9.60;99.90
28677;DHT22;15858;48.338;11.078;2024-03-23T09:10:48;9.70;99.90
28677;DHT22;15858;48.338;11.078;2024-03-23T09:13:14;9.70;99.90
28677;DHT22;15858;48.338;11.078;2024-03-23T09:15:47;9.70;99.90
28677;DHT22;15858;48.338;11.078;2024-03-23T09:18:13;9.60;99.90
28677;DHT22;15858;48.338;11.078;2024-03-23T09:20:39;9.70;99.90
28677;DHT22;15858;48.338;11.078;2024-03-23T09:23:05;9.60;99.90
28677;DHT22;15858;48.338;11.078;2024-03-23T09:25:30;9.50;99.90
28677;DHT22;15858;48.338;11.078;2024-03-23T09:27:56;9.40;99.90
28677;DHT22;15858;48.338;11.078;2024-03-23T09:30:22;9.50;99.90
28677;DHT22;15858;48.338;11.078;2024-03-23T09:32:48;9.50;99.90
28677;DHT22;15858;48.338;11.078;2024-03-23T09:35:13;9.50;99.90
28677;DHT22;15858;48.338;11.078;2024-03-23T09:37:39;9.40;99.90
28677;DHT22;15858;48.338;11.078;2024-03-23T09:40:10;9.20;99.90
28677;DHT22;15858;48.338;11.078;2024-03-23T09:42:36;9.20;99.90
28677;DHT22;15858;48.338;11.078;2024-03-23T09:45:02;9.20;99.90
28677;DHT22;15858;48.338;11.078;2024-03-23T09:47:28;9.20;99.90
28677;DHT22;15858;48.338;11.078;2024-03-23T09:49:54;9.20;99.90
28677;DHT22;15858;48.338;11.078;2024-03-23T09:52:20;9.10;99.90
28677;DHT22;15858;48.338;11.078;2024-03-23T09:54:46;9.10;99.90
28677;DHT22;15858;48.338;11.078;2024-03-23T09:57:12;9.20;99.90
28677;DHT22;15858;48.338;11.078;2024-03-23T09:59:37;9.20;99.90
28677;DHT22;15858;48.338;11.078;2024-03-23T10:02:04;9.10;99.90
28677;DHT22;15858;48.338;11.078;2024-03-23T10:04:41;9.20;99.90
28677;DHT22;15858;48.338;11.078;2024-03-23T10:07:19;9.20;99.90
28677;DHT22;15858;48.338;11.078;2024-03-23T10:09:46;9.30;99.90
28677;DHT22;15858;48.338;11.078;2024-03-23T10:12:13;9.30;99.90
28677;DHT22;15858;48.338;11.078;2024-03-23T10:14:43;9.30;99.90
28677;DHT22;15858;48.338;11.078;2024-03-23T10:17:16;9.40;99.90
28677;DHT22;15858;48.338;11.078;2024-03-23T10:19:46;9.30;99.90
28677;DHT22;15858;48.338;11.078;2024-03-23T10:22:23;9.30;99.90
28677;DHT22;15858;48.338;11.078;2024-03-23T10:24:49;9.20;99.90
28677;DHT22;15858;48.338;11.078;2024-03-23T10:27:19;9.00;99.90
28677;DHT22;15858;48.338;11.078;2024-03-23T10:29:49;8.80;99.90
28677;DHT22;15858;48.338;11.078;2024-03-23T10:32:17;8.70;99.90
28677;DHT22;15858;48.338;11.078;2024-03-23T10:34:43;8.70;99.90
28677;DHT22;15858;48.338;11.078;2024-03-23T10:37:09;8.70;99.90
28677;DHT22;15858;48.338;11.078;2024-03-23T10:39:39;8.90;99.90
28677;DHT22;15858;48.338;11.078;2024-03-23T10:42:07;9.00;99.90
28677;DHT22;15858;48.338;11.078;2024-03-23T10:44:34;8.90;99.90
28677;DHT22;15858;48.338;11.078;2024-03-23T10:47:04;8.90;99.90
28677;DHT22;15858;48.338;11.078;2024-03-23T10:49:34;9.00;99.90
28677;DHT22;15858;48.338;11.078;2024-03-23T10:52:01;8.90;99.90
28677;DHT22;15858;48.338;11.078;2024-03-23T10:54:27;8.90;99.90
28677;DHT22;15858;48.338;11.078;2024-03-23T10:57:04;8.90;99.90
28677;DHT22;15858;48.338;11.078;2024-03-23T10:59:31;8.90;99.90
28677;DHT22;15858;48.338;11.078;2024-03-23T11:01:59;8.90;99.90
28677;DHT22;15858;48.338;11.078;2024-03-23T11:04:35;8.90;99.90
28677;DHT22;15858;48.338;11.078;2024-03-23T11:07:02;9.00;99.90
28677;DHT22;15858;48.338;11.078;2024-03-23T11:14:48;9.20;99.90
28677;DHT22;15858;48.338;11.078;2024-03-23T11:17:21;9.30;99.90
28677;DHT22;15858;48.338;11.078;2024-03-23T11:22:46;9.30;99.90
28677;DHT22;15858;48.338;11.078;2024-03-23T11:27:43;9.60;99.90
28677;DHT22;15858;48.338;11.078;2024-03-23T11:30:44;9.60;99.90
28677;DHT22;15858;48.338;11.078;2024-03-23T11:33:03;9.60;99.90
28677;DHT22;15858;48.338;11.078;2024-03-23T11:35:30;9.60;99.90
28677;DHT22;15858;48.338;11.078;2024-03-23T11:38:10;9.60;99.90
28677;DHT22;15858;48.338;11.078;2024-03-23T11:40:41;9.60;99.90
28677;DHT22;15858;48.338;11.078;2024-03-23T11:43:09;9.60;99.90
28677;DHT22;15858;48.338;11.078;2024-03-23T11:45:43;9.40;99.90
28677;DHT22;15858;48.338;11.078;2024-03-23T11:48:11;9.40;99.90
28677;DHT22;15858;48.338;11.078;2024-03-23T11:50:41;9.40;99.90
28677;DHT22;15858;48.338;11.078;2024-03-23T11:53:17;9.40;99.90
28677;DHT22;15858;48.338;11.078;2024-03-23T11:58:20;9.30;99.90
28677;DHT22;15858;48.338;11.078;2024-03-23T12:00:56;9.20;99.90
28677;DHT22;15858;48.338;11.078;2024-03-23T12:03:22;9.20;99.90
28677;DHT22;15858;48.338;11.078;2024-03-23T12:05:49;9.30;99.90
28677;DHT22;15858;48.338;11.078;2024-03-23T12:10:44;9.30;99.90
28677;DHT22;15858;48.338;11.078;2024-03-23T12:13:10;9.50;99.90
28677;DHT22;15858;48.338;11.078;2024-03-23T12:15:36;9.70;99.90
28677;DHT22;15858;48.338;11.078;2024-03-23T12:18:08;9.80;99.90
28677;DHT22;15858;48.338;11.078;2024-03-23T12:20:34;9.80;99.90
28677;DHT22;15858;48.338;11.078;2024-03-23T12:23:07;9.80;99.90
28677;DHT22;15858;48.338;11.078;2024-03-23T12:25:34;9.60;99.90
28677;DHT22;15858;48.338;11.078;2024-03-23T12:28:00;9.50;99.90
28677;DHT22;15858;48.338;11.078;2024-03-23T12:30:26;9.60;99.90
28677;DHT22;15858;48.338;11.078;2024-03-23T12:32:52;9.30;99.90
28677;DHT22;15858;48.338;11.078;2024-03-23T12:35:18;9.40;99.90
28677;DHT22;15858;48.338;11.078;2024-03-23T12:37:44;9.30;99.90
28677;DHT22;15858;48.338;11.078;2024-03-23T12:40:10;9.40;99.90
28677;DHT22;15858;48.338;11.078;2024-03-23T12:42:36;9.40;99.90
28677;DHT22;15858;48.338;11.078;2024-03-23T12:45:01;9.40;99.90
28677;DHT22;15858;48.338;11.078;2024-03-23T12:47:27;9.50;99.90
28677;DHT22;15858;48.338;11.078;2024-03-23T12:49:53;9.50;99.90
28677;DHT22;15858;48.338;11.078;2024-03-23T12:52:19;9.60;99.90
28677;DHT22;15858;48.338;11.078;2024-03-23T12:54:44;9.60;99.90
28677;DHT22;15858;48.338;11.078;2024-03-23T12:57:10;9.60;99.90
28677;DHT22;15858;48.338;11.078;2024-03-23T12:59:36;9.50;99.90
28677;DHT22;15858;48.338;11.078;2024-03-23T13:02:02;9.50;99.90
28677;DHT22;15858;48.338;11.078;2024-03-23T13:04:27;9.40;99.90
28677;DHT22;15858;48.338;11.078;2024-03-23T13:06:53;9.40;99.90
28677;DHT22;15858;48.338;11.078;2024-03-23T13:09:19;9.40;99.90
28677;DHT22;15858;48.338;11.078;2024-03-23T13:11:45;9.30;99.90
28677;DHT22;15858;48.338;11.078;2024-03-23T13:14:10;9.20;99.90
28677;DHT22;15858;48.338;11.078;2024-03-23T13:16:36;9.20;99.90
28677;DHT22;15858;48.338;11.078;2024-03-23T13:19:02;9.20;99.90
28677;DHT22;15858;48.338;11.078;2024-03-23T13:21:27;8.90;99.90
28677;DHT22;15858;48.338;11.078;2024-03-23T13:23:53;8.70;99.90
28677;DHT22;15858;48.338;11.078;2024-03-23T13:26:19;8.60;99.90
28677;DHT22;15858;48.338;11.078;2024-03-23T13:28:45;8.50;99.90
28677;DHT22;15858;48.338;11.078;2024-03-23T13:31:10;8.50;99.90
28677;DHT22;15858;48.338;11.078;2024-03-23T13:33:36;8.50;99.90
28677;DHT22;15858;48.338;11.078;2024-03-23T13:36:02;8.40;99.90
28677;DHT22;15858;48.338;11.078;2024-03-23T13:38:28;8.30;99.90
28677;DHT22;15858;48.338;11.078;2024-03-23T13:43:20;8.20;99.90
28677;DHT22;15858;48.338;11.078;2024-03-23T13:45:47;8.30;99.90
28677;DHT22;15858;48.338;11.078;2024-03-23T13:48:14;8.20;99.90
28677;DHT22;15858;48.338;11.078;2024-03-23T13:50:40;8.30;99.90
28677;DHT22;15858;48.338;11.078;2024-03-23T13:53:06;8.20;99.90
28677;DHT22;15858;48.338;11.078;2024-03-23T13:55:32;8.20;99.90
28677;DHT22;15858;48.338;11.078;2024-03-23T13:57:57;8.10;99.90
28677;DHT22;15858;48.338;11.078;2024-03-23T14:00:23;8.00;99.90
28677;DHT22;15858;48.338;11.078;2024-03-23T14:02:49;8.00;99.90
28677;DHT22;15858;48.338;11.078;2024-03-23T14:05:15;7.90;99.90
28677;DHT22;15858;48.338;11.078;2024-03-23T14:07:40;7.90;99.90
28677;DHT22;15858;48.338;11.078;2024-03-23T14:10:06;7.90;99.90
28677;DHT22;15858;48.338;11.078;2024-03-23T14:12:32;8.00;99.90
28677;DHT22;15858;48.338;11.078;2024-03-23T14:14:58;8.10;99.90
28677;DHT22;15858;48.338;11.078;2024-03-23T14:17:24;8.00;99.90
28677;DHT22;15858;48.338;11.078;2024-03-23T14:19:49;8.00;99.90
28677;DHT22;15858;48.338;11.078;2024-03-23T14:22:15;7.90;99.90
28677;DHT22;15858;48.338;11.078;2024-03-23T14:24:41;7.90;99.90
28677;DHT22;15858;48.338;11.078;2024-03-23T14:27:07;7.90;99.90
28677;DHT22;15858;48.338;11.078;2024-03-23T14:29:32;7.90;99.90
28677;DHT22;15858;48.338;11.078;2024-03-23T14:31:58;7.90;99.90
28677;DHT22;15858;48.338;11.078;2024-03-23T14:34:26;7.80;99.90
28677;DHT22;15858;48.338;11.078;2024-03-23T14:36:52;7.70;99.90
28677;DHT22;15858;48.338;11.078;2024-03-23T14:39:17;7.90;99.90
28677;DHT22;15858;48.338;11.078;2024-03-23T14:41:43;7.90;99.90
28677;DHT22;15858;48.338;11.078;2024-03-23T14:44:09;7.80;99.90
28677;DHT22;15858;48.338;11.078;2024-03-23T14:46:34;7.90;99.90
28677;DHT22;15858;48.338;11.078;2024-03-23T14:49:00;7.80;99.90
28677;DHT22;15858;48.338;11.078;2024-03-23T14:51:26;7.90;99.90
28677;DHT22;15858;48.338;11.078;2024-03-23T14:53:52;8.00;99.90
28677;DHT22;15858;48.338;11.078;2024-03-23T14:56:17;8.10;99.90
28677;DHT22;15858;48.338;11.078;2024-03-23T14:58:43;8.30;99.90
28677;DHT22;15858;48.338;11.078;2024-03-23T15:01:09;8.20;99.90
28677;DHT22;15858;48.338;11.078;2024-03-23T15:03:38;8.20;99.90
28677;DHT22;15858;48.338;11.078;2024-03-23T15:06:04;8.20;99.90
28677;DHT22;15858;48.338;11.078;2024-03-23T15:08:30;8.20;99.90
28677;DHT22;15858;48.338;11.078;2024-03-23T15:11:00;8.20;99.90
28677;DHT22;15858;48.338;11.078;2024-03-23T15:13:26;8.20;99.90
28677;DHT22;15858;48.338;11.078;2024-03-23T15:15:51;8.20;99.90
28677;DHT22;15858;48.338;11.078;2024-03-23T15:18:17;8.30;99.90
28677;DHT22;15858;48.338;11.078;2024-03-23T15:20:52;8.40;99.90
28677;DHT22;15858;48.338;11.078;2024-03-23T15:23:18;8.60;99.90
28677;DHT22;15858;48.338;11.078;2024-03-23T15:25:44;8.70;99.90
28677;DHT22;15858;48.338;11.078;2024-03-23T15:28:10;8.70;99.90
28677;DHT22;15858;48.338;11.078;2024-03-23T15:30:35;8.80;99.90
28677;DHT22;15858;48.338;11.078;2024-03-23T15:33:01;9.00;99.90
28677;DHT22;15858;48.338;11.078;2024-03-23T15:35:27;9.10;99.90
28677;DHT22;15858;48.338;11.078;2024-03-23T15:37:53;9.20;99.90
28677;DHT22;15858;48.338;11.078;2024-03-23T15:40:50;9.30;99.90
28677;DHT22;15858;48.338;11.078;2024-03-23T15:43:15;9.30;99.90
28677;DHT22;15858;48.338;11.078;2024-03-23T15:45:41;9.00;99.90
28677;DHT22;15858;48.338;11.078;2024-03-23T15:48:07;8.80;99.90
28677;DHT22;15858;48.338;11.078;2024-03-23T15:50:33;8.60;99.90
28677;DHT22;15858;48.338;11.078;2024-03-23T15:52:58;8.50;99.90
28677;DHT22;15858;48.338;11.078;2024-03-23T15:55:24;8.40;99.90
28677;DHT22;15858;48.338;11.078;2024-03-23T15:57:50;8.30;99.90
28677;DHT22;15858;48.338;11.078;2024-03-23T16:00:16;8.20;99.90
28677;DHT22;15858;48.338;11.078;2024-03-23T16:02:42;8.20;99.90
28677;DHT22;15858;48.338;11.078;2024-03-23T16:05:08;8.20;99.90
28677;DHT22;15858;48.338;11.078;2024-03-23T16:07:33;8.20;99.90
28677;DHT22;15858;48.338;11.078;2024-03-23T16:09:59;8.20;99.90
28677;DHT22;15858;48.338;11.078;2024-03-23T16:12:25;8.10;99.90
28677;DHT22;15858;48.338;11.078;2024-03-23T16:14:51;8.10;99.90
28677;DHT22;15858;48.338;11.078;2024-03-23T16:17:16;8.30;99.90
28677;DHT22;15858;48.338;11.078;2024-03-23T16:19:42;8.30;99.90
28677;DHT22;15858;48.338;11.078;2024-03-23T16:22:08;8.40;99.90
28677;DHT22;15858;48.338;11.078;2024-03-23T16:24:34;8.50;99.90
28677;DHT22;15858;48.338;11.078;2024-03-23T16:26:59;8.60;99.90
28677;DHT22;15858;48.338;11.078;2024-03-23T16:29:25;8.60;99.90
28677;DHT22;15858;48.338;11.078;2024-03-23T16:31:51;8.50;99.90
28677;DHT22;15858;48.338;11.078;2024-03-23T16:34:17;8.40;99.90